sensor_id;sensor_type;location;lat;lon;timestamp;P1;durP1;ratioP1;P2;durP2;ratioP2
13592;SDS011;6867;50.998;4.250;2023-04-25T00:00:35;12.73;;;4.83;;
13592;SDS011;6867;50.998;4.250;2023-04-25T00:03:01;9.10;;;4.30;;
13592;SDS011;6867;50.998;4.250;2023-04-25T00:05:31;7.13;;;3.90;;
13592;SDS011;6867;50.998;4.250;2023-04-25T00:07:58;8.10;;;3.43;;
13592;SDS011;6867;50.998;4.250;2023-04-25T00:10:25;13.67;;;4.00;;
13592;SDS011;6867;50.998;4.250;2023-04-25T00:12:51;8.20;;;4.53;;
13592;SDS011;6867;50.998;4.250;2023-04-25T00:15:18;15.37;;;3.80;;
13592;SDS011;6867;50.998;4.250;2023-04-25T00:17:45;9.43;;;3.87;;
13592;SDS011;6867;50.998;4.250;2023-04-25T00:20:12;9.57;;;3.73;;
13592;SDS011;6867;50.998;4.250;2023-04-25T00:22:40;9.60;;;3.40;;
13592;SDS011;6867;50.998;4.250;2023-04-25T00:25:07;12.37;;;4.10;;
13592;SDS011;6867;50.998;4.250;2023-04-25T00:27:34;11.80;;;4.40;;
13592;SDS011;6867;50.998;4.250;2023-04-25T00:30:01;7.03;;;4.33;;
13592;SDS011;6867;50.998;4.250;2023-04-25T00:32:28;17.00;;;3.70;;
13592;SDS011;6867;50.998;4.250;2023-04-25T00:34:55;13.47;;;3.70;;
13592;SDS011;6867;50.998;4.250;2023-04-25T00:37:22;16.50;;;4.73;;
13592;SDS011;6867;50.998;4.250;2023-04-25T00:39:50;13.27;;;4.70;;
13592;SDS011;6867;50.998;4.250;2023-04-25T00:42:18;14.93;;;4.03;;
13592;SDS011;6867;50.998;4.250;2023-04-25T00:44:45;15.40;;;4.13;;
13592;SDS011;6867;50.998;4.250;2023-04-25T00:47:13;11.90;;;3.70;;
13592;SDS011;6867;50.998;4.250;2023-04-25T00:49:41;15.33;;;4.30;;
13592;SDS011;6867;50.998;4.250;2023-04-25T00:52:08;13.50;;;4.00;;
13592;SDS011;6867;50.998;4.250;2023-04-25T00:54:35;17.83;;;4.33;;
13592;SDS011;6867;50.998;4.250;2023-04-25T00:57:03;9.40;;;3.73;;
13592;SDS011;6867;50.998;4.250;2023-04-25T00:59:30;12.37;;;3.23;;
13592;SDS011;6867;50.998;4.250;2023-04-25T01:01:57;14.00;;;4.17;;
13592;SDS011;6867;50.998;4.250;2023-04-25T01:04:25;15.30;;;3.70;;
13592;SDS011;6867;50.998;4.250;2023-04-25T01:06:53;12.07;;;3.70;;
13592;SDS011;6867;50.998;4.250;2023-04-25T01:09:20;14.13;;;4.03;;
13592;SDS011;6867;50.998;4.250;2023-04-25T01:11:48;11.07;;;4.10;;
13592;SDS011;6867;50.998;4.250;2023-04-25T01:14:16;17.20;;;4.13;;
13592;SDS011;6867;50.998;4.250;2023-04-25T01:16:43;12.60;;;3.73;;
13592;SDS011;6867;50.998;4.250;2023-04-25T01:19:10;9.93;;;4.13;;
13592;SDS011;6867;50.998;4.250;2023-04-25T01:21:39;9.90;;;3.50;;
13592;SDS011;6867;50.998;4.250;2023-04-25T01:24:05;11.77;;;4.47;;
13592;SDS011;6867;50.998;4.250;2023-04-25T01:26:33;10.80;;;4.50;;
13592;SDS011;6867;50.998;4.250;2023-04-25T01:29:01;11.43;;;4.37;;
13592;SDS011;6867;50.998;4.250;2023-04-25T01:31:27;17.27;;;4.53;;
13592;SDS011;6867;50.998;4.250;2023-04-25T01:33:55;10.27;;;4.00;;
13592;SDS011;6867;50.998;4.250;2023-04-25T01:36:21;12.07;;;3.73;;
13592;SDS011;6867;50.998;4.250;2023-04-25T01:38:50;15.00;;;3.77;;
13592;SDS011;6867;50.998;4.250;2023-04-25T01:41:17;14.80;;;4.30;;
13592;SDS011;6867;50.998;4.250;2023-04-25T01:43:44;17.13;;;4.77;;
13592;SDS011;6867;50.998;4.250;2023-04-25T01:46:11;15.67;;;3.93;;
13592;SDS011;6867;50.998;4.250;2023-04-25T01:48:38;13.63;;;4.50;;
13592;SDS011;6867;50.998;4.250;2023-04-25T01:51:05;14.70;;;4.20;;
13592;SDS011;6867;50.998;4.250;2023-04-25T01:53:32;15.47;;;4.70;;
13592;SDS011;6867;50.998;4.250;2023-04-25T01:56:00;9.10;;;3.90;;
13592;SDS011;6867;50.998;4.250;2023-04-25T01:58:26;15.40;;;4.43;;
13592;SDS011;6867;50.998;4.250;2023-04-25T02:00:53;10.80;;;4.30;;
13592;SDS011;6867;50.998;4.250;2023-04-25T02:03:20;16.90;;;3.97;;
13592;SDS011;6867;50.998;4.250;2023-04-25T02:05:47;14.23;;;4.07;;
13592;SDS011;6867;50.998;4.250;2023-04-25T02:08:13;11.23;;;4.60;;
13592;SDS011;6867;50.998;4.250;2023-04-25T02:10:40;20.67;;;4.50;;
13592;SDS011;6867;50.998;4.250;2023-04-25T02:13:08;14.37;;;4.73;;
13592;SDS011;6867;50.998;4.250;2023-04-25T02:15:35;11.00;;;4.50;;
13592;SDS011;6867;50.998;4.250;2023-04-25T02:18:01;16.73;;;4.23;;
13592;SDS011;6867;50.998;4.250;2023-04-25T02:20:28;12.13;;;4.33;;
13592;SDS011;6867;50.998;4.250;2023-04-25T02:22:56;9.80;;;4.40;;
13592;SDS011;6867;50.998;4.250;2023-04-25T02:25:23;10.07;;;3.73;;
13592;SDS011;6867;50.998;4.250;2023-04-25T02:27:50;13.60;;;4.57;;
13592;SDS011;6867;50.998;4.250;2023-04-25T02:30:18;16.60;;;4.20;;
13592;SDS011;6867;50.998;4.250;2023-04-25T02:32:45;11.80;;;4.47;;
13592;SDS011;6867;50.998;4.250;2023-04-25T02:35:12;14.53;;;4.17;;
13592;SDS011;6867;50.998;4.250;2023-04-25T02:37:39;14.30;;;4.10;;
13592;SDS011;6867;50.998;4.250;2023-04-25T02:40:06;12.47;;;4.80;;
13592;SDS011;6867;50.998;4.250;2023-04-25T02:42:34;10.37;;;4.50;;
13592;SDS011;6867;50.998;4.250;2023-04-25T02:45:01;11.90;;;4.40;;
13592;SDS011;6867;50.998;4.250;2023-04-25T02:47:29;14.23;;;3.93;;
13592;SDS011;6867;50.998;4.250;2023-04-25T02:49:56;16.17;;;4.90;;
13592;SDS011;6867;50.998;4.250;2023-04-25T02:52:23;14.07;;;4.03;;
13592;SDS011;6867;50.998;4.250;2023-04-25T02:54:50;11.40;;;4.40;;
13592;SDS011;6867;50.998;4.250;2023-04-25T02:57:17;13.77;;;4.23;;
13592;SDS011;6867;50.998;4.250;2023-04-25T02:59:43;12.50;;;3.83;;
13592;SDS011;6867;50.998;4.250;2023-04-25T03:02:10;15.83;;;5.47;;
13592;SDS011;6867;50.998;4.250;2023-04-25T03:04:38;14.97;;;4.13;;
13592;SDS011;6867;50.998;4.250;2023-04-25T03:07:05;13.10;;;3.97;;
13592;SDS011;6867;50.998;4.250;2023-04-25T03:09:32;11.10;;;3.63;;
13592;SDS011;6867;50.998;4.250;2023-04-25T03:11:58;14.63;;;4.10;;
13592;SDS011;6867;50.998;4.250;2023-04-25T03:14:25;12.53;;;4.40;;
13592;SDS011;6867;50.998;4.250;2023-04-25T03:16:52;10.00;;;3.43;;
13592;SDS011;6867;50.998;4.250;2023-04-25T03:19:18;16.73;;;4.33;;
13592;SDS011;6867;50.998;4.250;2023-04-25T03:21:46;11.67;;;3.33;;
13592;SDS011;6867;50.998;4.250;2023-04-25T03:24:13;11.30;;;3.40;;
13592;SDS011;6867;50.998;4.250;2023-04-25T03:26:40;10.33;;;3.70;;
13592;SDS011;6867;50.998;4.250;2023-04-25T03:29:07;16.60;;;3.87;;
13592;SDS011;6867;50.998;4.250;2023-04-25T03:31:33;8.60;;;3.23;;
13592;SDS011;6867;50.998;4.250;2023-04-25T03:34:00;9.03;;;3.30;;
13592;SDS011;6867;50.998;4.250;2023-04-25T03:36:27;9.73;;;3.50;;
13592;SDS011;6867;50.998;4.250;2023-04-25T03:38:55;8.43;;;3.40;;
13592;SDS011;6867;50.998;4.250;2023-04-25T03:41:21;12.80;;;3.83;;
13592;SDS011;6867;50.998;4.250;2023-04-25T03:43:48;12.47;;;3.63;;
13592;SDS011;6867;50.998;4.250;2023-04-25T03:46:15;10.20;;;4.17;;
13592;SDS011;6867;50.998;4.250;2023-04-25T03:48:41;10.77;;;3.27;;
13592;SDS011;6867;50.998;4.250;2023-04-25T03:51:08;11.40;;;4.00;;
13592;SDS011;6867;50.998;4.250;2023-04-25T03:53:35;13.10;;;4.00;;
13592;SDS011;6867;50.998;4.250;2023-04-25T03:56:03;15.77;;;3.87;;
13592;SDS011;6867;50.998;4.250;2023-04-25T03:58:30;12.17;;;3.70;;
13592;SDS011;6867;50.998;4.250;2023-04-25T04:00:56;15.57;;;3.83;;
13592;SDS011;6867;50.998;4.250;2023-04-25T04:03:23;14.70;;;4.10;;
13592;SDS011;6867;50.998;4.250;2023-04-25T04:05:50;12.40;;;4.37;;
13592;SDS011;6867;50.998;4.250;2023-04-25T04:08:17;11.43;;;4.20;;
13592;SDS011;6867;50.998;4.250;2023-04-25T04:10:43;14.73;;;4.30;;
13592;SDS011;6867;50.998;4.250;2023-04-25T04:13:11;12.33;;;4.17;;
13592;SDS011;6867;50.998;4.250;2023-04-25T04:15:38;15.07;;;4.03;;
13592;SDS011;6867;50.998;4.250;2023-04-25T04:18:05;9.87;;;3.70;;
13592;SDS011;6867;50.998;4.250;2023-04-25T04:20:32;15.77;;;4.40;;
13592;SDS011;6867;50.998;4.250;2023-04-25T04:22:58;11.13;;;3.90;;
13592;SDS011;6867;50.998;4.250;2023-04-25T04:25:26;11.03;;;3.63;;
13592;SDS011;6867;50.998;4.250;2023-04-25T04:27:53;8.90;;;3.37;;
13592;SDS011;6867;50.998;4.250;2023-04-25T04:30:22;7.63;;;3.40;;
13592;SDS011;6867;50.998;4.250;2023-04-25T04:32:50;5.50;;;2.37;;
13592;SDS011;6867;50.998;4.250;2023-04-25T04:35:17;12.20;;;3.00;;
13592;SDS011;6867;50.998;4.250;2023-04-25T04:37:44;6.40;;;3.07;;
13592;SDS011;6867;50.998;4.250;2023-04-25T04:40:11;6.03;;;3.03;;
13592;SDS011;6867;50.998;4.250;2023-04-25T04:42:40;6.87;;;2.87;;
13592;SDS011;6867;50.998;4.250;2023-04-25T04:45:07;9.03;;;3.03;;
13592;SDS011;6867;50.998;4.250;2023-04-25T04:47:36;9.27;;;3.40;;
13592;SDS011;6867;50.998;4.250;2023-04-25T04:50:05;6.40;;;2.80;;
13592;SDS011;6867;50.998;4.250;2023-04-25T04:52:33;5.07;;;2.57;;
13592;SDS011;6867;50.998;4.250;2023-04-25T04:55:00;7.63;;;3.00;;
13592;SDS011;6867;50.998;4.250;2023-04-25T04:57:28;5.80;;;2.97;;
13592;SDS011;6867;50.998;4.250;2023-04-25T04:59:56;7.90;;;3.20;;
13592;SDS011;6867;50.998;4.250;2023-04-25T05:02:22;7.27;;;2.70;;
13592;SDS011;6867;50.998;4.250;2023-04-25T05:04:52;12.57;;;2.77;;
13592;SDS011;6867;50.998;4.250;2023-04-25T05:07:19;4.80;;;3.00;;
13592;SDS011;6867;50.998;4.250;2023-04-25T05:09:46;8.10;;;2.83;;
13592;SDS011;6867;50.998;4.250;2023-04-25T05:12:12;6.23;;;2.93;;
13592;SDS011;6867;50.998;4.250;2023-04-25T05:14:39;5.47;;;2.53;;
13592;SDS011;6867;50.998;4.250;2023-04-25T05:17:06;6.53;;;3.13;;
13592;SDS011;6867;50.998;4.250;2023-04-25T05:19:33;8.47;;;2.90;;
13592;SDS011;6867;50.998;4.250;2023-04-25T05:22:02;4.50;;;2.67;;
13592;SDS011;6867;50.998;4.250;2023-04-25T05:24:29;7.20;;;2.77;;
13592;SDS011;6867;50.998;4.250;2023-04-25T05:26:55;7.63;;;3.17;;
13592;SDS011;6867;50.998;4.250;2023-04-25T05:29:22;8.70;;;3.07;;
13592;SDS011;6867;50.998;4.250;2023-04-25T05:31:49;9.57;;;3.27;;
13592;SDS011;6867;50.998;4.250;2023-04-25T05:34:16;9.13;;;3.50;;
13592;SDS011;6867;50.998;4.250;2023-04-25T05:36:42;6.27;;;3.10;;
13592;SDS011;6867;50.998;4.250;2023-04-25T05:39:10;11.60;;;3.57;;
13592;SDS011;6867;50.998;4.250;2023-04-25T05:41:37;6.47;;;3.10;;
13592;SDS011;6867;50.998;4.250;2023-04-25T05:44:04;11.27;;;3.37;;
13592;SDS011;6867;50.998;4.250;2023-04-25T05:46:31;8.63;;;2.87;;
13592;SDS011;6867;50.998;4.250;2023-04-25T05:48:58;6.97;;;2.93;;
13592;SDS011;6867;50.998;4.250;2023-04-25T05:51:25;11.83;;;3.50;;
13592;SDS011;6867;50.998;4.250;2023-04-25T05:53:52;15.03;;;3.10;;
13592;SDS011;6867;50.998;4.250;2023-04-25T05:56:20;9.40;;;3.47;;
13592;SDS011;6867;50.998;4.250;2023-04-25T05:58:47;8.80;;;3.57;;
13592;SDS011;6867;50.998;4.250;2023-04-25T06:01:13;8.87;;;2.90;;
13592;SDS011;6867;50.998;4.250;2023-04-25T06:03:40;10.80;;;3.50;;
13592;SDS011;6867;50.998;4.250;2023-04-25T06:06:08;12.07;;;3.20;;
13592;SDS011;6867;50.998;4.250;2023-04-25T06:08:35;11.97;;;3.73;;
13592;SDS011;6867;50.998;4.250;2023-04-25T06:11:02;9.27;;;3.37;;
13592;SDS011;6867;50.998;4.250;2023-04-25T06:13:30;14.57;;;3.40;;
13592;SDS011;6867;50.998;4.250;2023-04-25T06:15:57;8.17;;;3.27;;
13592;SDS011;6867;50.998;4.250;2023-04-25T06:18:24;8.37;;;3.23;;
13592;SDS011;6867;50.998;4.250;2023-04-25T06:20:51;6.77;;;2.87;;
13592;SDS011;6867;50.998;4.250;2023-04-25T06:23:17;12.60;;;3.57;;
13592;SDS011;6867;50.998;4.250;2023-04-25T06:25:44;7.00;;;2.60;;
13592;SDS011;6867;50.998;4.250;2023-04-25T06:28:11;10.93;;;3.00;;
13592;SDS011;6867;50.998;4.250;2023-04-25T06:30:39;7.43;;;2.33;;
13592;SDS011;6867;50.998;4.250;2023-04-25T06:33:06;13.63;;;3.10;;
13592;SDS011;6867;50.998;4.250;2023-04-25T06:35:33;7.57;;;2.60;;
13592;SDS011;6867;50.998;4.250;2023-04-25T06:38:00;7.93;;;3.30;;
13592;SDS011;6867;50.998;4.250;2023-04-25T06:40:27;12.53;;;2.93;;
13592;SDS011;6867;50.998;4.250;2023-04-25T06:42:53;5.40;;;2.60;;
13592;SDS011;6867;50.998;4.250;2023-04-25T06:45:20;5.77;;;2.53;;
13592;SDS011;6867;50.998;4.250;2023-04-25T06:47:48;8.53;;;2.70;;
13592;SDS011;6867;50.998;4.250;2023-04-25T06:50:15;8.80;;;3.03;;
13592;SDS011;6867;50.998;4.250;2023-04-25T06:52:41;10.13;;;2.77;;
13592;SDS011;6867;50.998;4.250;2023-04-25T06:55:08;9.87;;;2.70;;
13592;SDS011;6867;50.998;4.250;2023-04-25T06:57:35;6.60;;;2.50;;
13592;SDS011;6867;50.998;4.250;2023-04-25T07:00:02;9.57;;;2.93;;
13592;SDS011;6867;50.998;4.250;2023-04-25T07:02:33;7.53;;;3.03;;
13592;SDS011;6867;50.998;4.250;2023-04-25T07:05:01;7.10;;;2.17;;
13592;SDS011;6867;50.998;4.250;2023-04-25T07:07:29;10.03;;;2.03;;
13592;SDS011;6867;50.998;4.250;2023-04-25T07:09:55;7.57;;;2.77;;
13592;SDS011;6867;50.998;4.250;2023-04-25T07:12:22;5.53;;;2.30;;
13592;SDS011;6867;50.998;4.250;2023-04-25T07:14:49;10.03;;;2.23;;
13592;SDS011;6867;50.998;4.250;2023-04-25T07:17:15;5.23;;;1.87;;
13592;SDS011;6867;50.998;4.250;2023-04-25T07:19:42;5.43;;;2.20;;
13592;SDS011;6867;50.998;4.250;2023-04-25T07:22:10;6.90;;;2.37;;
13592;SDS011;6867;50.998;4.250;2023-04-25T07:24:37;5.90;;;2.13;;
13592;SDS011;6867;50.998;4.250;2023-04-25T07:27:03;9.20;;;2.40;;
13592;SDS011;6867;50.998;4.250;2023-04-25T07:29:30;5.67;;;2.00;;
13592;SDS011;6867;50.998;4.250;2023-04-25T07:31:57;8.40;;;2.57;;
13592;SDS011;6867;50.998;4.250;2023-04-25T07:34:23;7.77;;;2.30;;
13592;SDS011;6867;50.998;4.250;2023-04-25T07:36:50;4.87;;;2.20;;
13592;SDS011;6867;50.998;4.250;2023-04-25T07:39:19;7.80;;;2.50;;
13592;SDS011;6867;50.998;4.250;2023-04-25T07:41:45;3.83;;;1.97;;
13592;SDS011;6867;50.998;4.250;2023-04-25T07:44:12;11.10;;;2.67;;
13592;SDS011;6867;50.998;4.250;2023-04-25T07:46:38;9.90;;;2.47;;
13592;SDS011;6867;50.998;4.250;2023-04-25T07:49:05;8.70;;;2.50;;
13592;SDS011;6867;50.998;4.250;2023-04-25T07:51:32;7.17;;;2.00;;
13592;SDS011;6867;50.998;4.250;2023-04-25T07:53:58;8.17;;;2.13;;
13592;SDS011;6867;50.998;4.250;2023-04-25T07:56:27;9.43;;;2.23;;
13592;SDS011;6867;50.998;4.250;2023-04-25T07:58:53;7.20;;;2.20;;
13592;SDS011;6867;50.998;4.250;2023-04-25T08:01:20;7.20;;;2.60;;
13592;SDS011;6867;50.998;4.250;2023-04-25T08:03:47;3.60;;;2.10;;
13592;SDS011;6867;50.998;4.250;2023-04-25T08:06:13;3.03;;;2.27;;
13592;SDS011;6867;50.998;4.250;2023-04-25T08:08:40;10.17;;;2.53;;
13592;SDS011;6867;50.998;4.250;2023-04-25T08:11:07;6.80;;;1.57;;
13592;SDS011;6867;50.998;4.250;2023-04-25T08:13:35;5.60;;;2.13;;
13592;SDS011;6867;50.998;4.250;2023-04-25T08:16:01;4.30;;;1.87;;
13592;SDS011;6867;50.998;4.250;2023-04-25T08:18:28;5.23;;;1.83;;
13592;SDS011;6867;50.998;4.250;2023-04-25T08:20:55;4.60;;;1.67;;
13592;SDS011;6867;50.998;4.250;2023-04-25T08:23:22;4.67;;;2.17;;
13592;SDS011;6867;50.998;4.250;2023-04-25T08:25:49;5.83;;;1.90;;
13592;SDS011;6867;50.998;4.250;2023-04-25T08:28:15;9.47;;;1.90;;
13592;SDS011;6867;50.998;4.250;2023-04-25T08:30:43;4.77;;;1.40;;
13592;SDS011;6867;50.998;4.250;2023-04-25T08:33:10;6.90;;;1.60;;
13592;SDS011;6867;50.998;4.250;2023-04-25T08:35:37;4.27;;;1.50;;
13592;SDS011;6867;50.998;4.250;2023-04-25T08:38:03;5.37;;;1.87;;
13592;SDS011;6867;50.998;4.250;2023-04-25T08:40:30;3.77;;;1.50;;
13592;SDS011;6867;50.998;4.250;2023-04-25T08:43:03;5.67;;;1.50;;
13592;SDS011;6867;50.998;4.250;2023-04-25T08:45:36;4.87;;;1.70;;
13592;SDS011;6867;50.998;4.250;2023-04-25T08:48:07;4.00;;;1.40;;
13592;SDS011;6867;50.998;4.250;2023-04-25T08:50:36;4.67;;;1.73;;
13592;SDS011;6867;50.998;4.250;2023-04-25T08:53:05;7.87;;;1.27;;
13592;SDS011;6867;50.998;4.250;2023-04-25T08:55:38;4.67;;;1.60;;
13592;SDS011;6867;50.998;4.250;2023-04-25T08:58:07;3.83;;;1.20;;
13592;SDS011;6867;50.998;4.250;2023-04-25T09:00:37;5.03;;;1.93;;
13592;SDS011;6867;50.998;4.250;2023-04-25T09:03:03;5.97;;;1.97;;
13592;SDS011;6867;50.998;4.250;2023-04-25T09:05:32;2.63;;;1.60;;
13592;SDS011;6867;50.998;4.250;2023-04-25T09:07:59;4.30;;;1.60;;
13592;SDS011;6867;50.998;4.250;2023-04-25T09:10:26;6.93;;;1.50;;
13592;SDS011;6867;50.998;4.250;2023-04-25T09:13:01;6.53;;;1.70;;
13592;SDS011;6867;50.998;4.250;2023-04-25T09:15:29;6.38;;;1.70;;
13592;SDS011;6867;50.998;4.250;2023-04-25T09:17:56;9.43;;;2.25;;
13592;SDS011;6867;50.998;4.250;2023-04-25T09:20:24;7.82;;;1.52;;
13592;SDS011;6867;50.998;4.250;2023-04-25T09:23:02;5.27;;;1.70;;
13592;SDS011;6867;50.998;4.250;2023-04-25T09:25:33;3.08;;;1.30;;
13592;SDS011;6867;50.998;4.250;2023-04-25T09:28:03;2.42;;;1.10;;
13592;SDS011;6867;50.998;4.250;2023-04-25T09:30:31;8.57;;;2.20;;
13592;SDS011;6867;50.998;4.250;2023-04-25T09:33:03;5.78;;;1.35;;
13592;SDS011;6867;50.998;4.250;2023-04-25T09:35:35;5.35;;;1.23;;
13592;SDS011;6867;50.998;4.250;2023-04-25T09:38:08;6.23;;;1.40;;
13592;SDS011;6867;50.998;4.250;2023-04-25T09:40:39;3.83;;;1.23;;
13592;SDS011;6867;50.998;4.250;2023-04-25T09:43:08;3.80;;;1.17;;
13592;SDS011;6867;50.998;4.250;2023-04-25T09:45:45;3.27;;;1.33;;
13592;SDS011;6867;50.998;4.250;2023-04-25T09:48:12;2.10;;;1.17;;
13592;SDS011;6867;50.998;4.250;2023-04-25T09:50:43;5.77;;;1.60;;
13592;SDS011;6867;50.998;4.250;2023-04-25T09:53:11;5.63;;;1.20;;
13592;SDS011;6867;50.998;4.250;2023-04-25T09:55:38;3.53;;;1.33;;
13592;SDS011;6867;50.998;4.250;2023-04-25T09:58:08;4.55;;;1.65;;
13592;SDS011;6867;50.998;4.250;2023-04-25T10:00:37;3.38;;;1.23;;
13592;SDS011;6867;50.998;4.250;2023-04-25T10:03:05;5.90;;;1.73;;
13592;SDS011;6867;50.998;4.250;2023-04-25T10:05:32;3.75;;;1.38;;
13592;SDS011;6867;50.998;4.250;2023-04-25T10:08:02;4.63;;;1.38;;
13592;SDS011;6867;50.998;4.250;2023-04-25T10:10:31;4.82;;;1.70;;
13592;SDS011;6867;50.998;4.250;2023-04-25T10:13:02;4.90;;;1.40;;
13592;SDS011;6867;50.998;4.250;2023-04-25T10:15:30;1.50;;;0.95;;
13592;SDS011;6867;50.998;4.250;2023-04-25T10:17:58;4.45;;;1.50;;
13592;SDS011;6867;50.998;4.250;2023-04-25T10:20:24;2.60;;;1.48;;
13592;SDS011;6867;50.998;4.250;2023-04-25T10:22:51;3.63;;;1.05;;
13592;SDS011;6867;50.998;4.250;2023-04-25T10:25:22;4.47;;;1.38;;
13592;SDS011;6867;50.998;4.250;2023-04-25T10:27:51;4.72;;;1.60;;
13592;SDS011;6867;50.998;4.250;2023-04-25T10:30:18;4.70;;;1.30;;
13592;SDS011;6867;50.998;4.250;2023-04-25T10:32:45;5.22;;;1.35;;
13592;SDS011;6867;50.998;4.250;2023-04-25T10:35:15;3.37;;;1.37;;
13592;SDS011;6867;50.998;4.250;2023-04-25T10:38:00;8.30;;;1.70;;
13592;SDS011;6867;50.998;4.250;2023-04-25T10:40:29;7.63;;;1.50;;
13592;SDS011;6867;50.998;4.250;2023-04-25T10:43:32;3.10;;;1.43;;
13592;SDS011;6867;50.998;4.250;2023-04-25T10:46:17;7.83;;;1.63;;
13592;SDS011;6867;50.998;4.250;2023-04-25T10:48:46;2.87;;;1.13;;
13592;SDS011;6867;50.998;4.250;2023-04-25T10:51:21;4.00;;;1.50;;
13592;SDS011;6867;50.998;4.250;2023-04-25T10:53:58;4.80;;;1.30;;
13592;SDS011;6867;50.998;4.250;2023-04-25T10:56:27;3.53;;;1.30;;
13592;SDS011;6867;50.998;4.250;2023-04-25T10:59:09;6.20;;;1.40;;
13592;SDS011;6867;50.998;4.250;2023-04-25T11:01:38;5.73;;;1.20;;
13592;SDS011;6867;50.998;4.250;2023-04-25T11:04:06;3.07;;;1.00;;
13592;SDS011;6867;50.998;4.250;2023-04-25T11:06:46;5.27;;;1.20;;
13592;SDS011;6867;50.998;4.250;2023-04-25T11:09:24;4.00;;;1.30;;
13592;SDS011;6867;50.998;4.250;2023-04-25T11:11:53;6.95;;;1.55;;
13592;SDS011;6867;50.998;4.250;2023-04-25T11:14:21;3.38;;;1.58;;
13592;SDS011;6867;50.998;4.250;2023-04-25T11:16:52;3.15;;;1.42;;
13592;SDS011;6867;50.998;4.250;2023-04-25T11:19:19;4.17;;;1.27;;
13592;SDS011;6867;50.998;4.250;2023-04-25T11:21:46;4.73;;;1.30;;
13592;SDS011;6867;50.998;4.250;2023-04-25T11:24:13;2.30;;;1.63;;
13592;SDS011;6867;50.998;4.250;2023-04-25T11:26:41;5.15;;;1.35;;
13592;SDS011;6867;50.998;4.250;2023-04-25T11:29:08;4.05;;;1.10;;
13592;SDS011;6867;50.998;4.250;2023-04-25T11:31:36;9.73;;;1.73;;
13592;SDS011;6867;50.998;4.250;2023-04-25T11:34:03;2.78;;;0.90;;
13592;SDS011;6867;50.998;4.250;2023-04-25T11:36:30;4.60;;;1.02;;
13592;SDS011;6867;50.998;4.250;2023-04-25T11:38:57;2.70;;;1.17;;
13592;SDS011;6867;50.998;4.250;2023-04-25T11:41:24;1.83;;;1.10;;
13592;SDS011;6867;50.998;4.250;2023-04-25T11:43:52;2.38;;;1.08;;
13592;SDS011;6867;50.998;4.250;2023-04-25T11:46:19;2.05;;;1.00;;
13592;SDS011;6867;50.998;4.250;2023-04-25T11:48:47;0.95;;;0.73;;
13592;SDS011;6867;50.998;4.250;2023-04-25T11:51:15;2.15;;;0.90;;
13592;SDS011;6867;50.998;4.250;2023-04-25T11:53:42;1.13;;;0.73;;
13592;SDS011;6867;50.998;4.250;2023-04-25T11:56:11;2.40;;;0.80;;
13592;SDS011;6867;50.998;4.250;2023-04-25T11:58:54;4.32;;;1.08;;
13592;SDS011;6867;50.998;4.250;2023-04-25T12:01:25;0.80;;;0.80;;
13592;SDS011;6867;50.998;4.250;2023-04-25T12:03:57;2.25;;;0.90;;
13592;SDS011;6867;50.998;4.250;2023-04-25T12:06:27;1.98;;;1.08;;
13592;SDS011;6867;50.998;4.250;2023-04-25T12:09:01;4.85;;;1.30;;
13592;SDS011;6867;50.998;4.250;2023-04-25T12:11:29;3.88;;;1.25;;
13592;SDS011;6867;50.998;4.250;2023-04-25T12:14:01;3.17;;;1.10;;
13592;SDS011;6867;50.998;4.250;2023-04-25T12:16:28;3.45;;;1.05;;
13592;SDS011;6867;50.998;4.250;2023-04-25T12:18:55;2.13;;;1.17;;
13592;SDS011;6867;50.998;4.250;2023-04-25T12:21:29;3.40;;;1.13;;
13592;SDS011;6867;50.998;4.250;2023-04-25T12:24:07;3.42;;;1.60;;
13592;SDS011;6867;50.998;4.250;2023-04-25T12:26:45;4.25;;;1.33;;
13592;SDS011;6867;50.998;4.250;2023-04-25T12:29:15;2.77;;;1.27;;
13592;SDS011;6867;50.998;4.250;2023-04-25T12:31:42;4.10;;;1.13;;
13592;SDS011;6867;50.998;4.250;2023-04-25T12:34:09;4.60;;;1.10;;
13592;SDS011;6867;50.998;4.250;2023-04-25T12:36:37;5.27;;;1.37;;
13592;SDS011;6867;50.998;4.250;2023-04-25T12:39:03;3.33;;;1.23;;
13592;SDS011;6867;50.998;4.250;2023-04-25T12:41:30;2.20;;;0.80;;
13592;SDS011;6867;50.998;4.250;2023-04-25T12:43:57;4.33;;;0.90;;
13592;SDS011;6867;50.998;4.250;2023-04-25T12:46:24;5.27;;;1.20;;
13592;SDS011;6867;50.998;4.250;2023-04-25T12:48:50;2.93;;;1.30;;
13592;SDS011;6867;50.998;4.250;2023-04-25T12:51:17;2.93;;;1.13;;
13592;SDS011;6867;50.998;4.250;2023-04-25T12:53:45;1.70;;;1.08;;
13592;SDS011;6867;50.998;4.250;2023-04-25T12:56:12;2.85;;;1.13;;
13592;SDS011;6867;50.998;4.250;2023-04-25T12:58:38;3.22;;;1.42;;
13592;SDS011;6867;50.998;4.250;2023-04-25T13:01:05;3.55;;;1.00;;
13592;SDS011;6867;50.998;4.250;2023-04-25T13:03:32;1.80;;;1.00;;
13592;SDS011;6867;50.998;4.250;2023-04-25T13:05:59;3.17;;;1.00;;
13592;SDS011;6867;50.998;4.250;2023-04-25T13:08:26;3.08;;;1.02;;
13592;SDS011;6867;50.998;4.250;2023-04-25T13:10:54;4.00;;;0.95;;
13592;SDS011;6867;50.998;4.250;2023-04-25T13:13:21;4.97;;;1.40;;
13592;SDS011;6867;50.998;4.250;2023-04-25T13:15:47;5.18;;;1.13;;
13592;SDS011;6867;50.998;4.250;2023-04-25T13:18:14;5.88;;;1.73;;
13592;SDS011;6867;50.998;4.250;2023-04-25T13:20:41;5.90;;;1.17;;
13592;SDS011;6867;50.998;4.250;2023-04-25T13:23:07;3.15;;;1.02;;
13592;SDS011;6867;50.998;4.250;2023-04-25T13:25:34;3.22;;;1.10;;
13592;SDS011;6867;50.998;4.250;2023-04-25T13:28:03;4.45;;;1.27;;
13592;SDS011;6867;50.998;4.250;2023-04-25T13:30:30;2.85;;;0.95;;
13592;SDS011;6867;50.998;4.250;2023-04-25T13:32:56;5.55;;;1.17;;
13592;SDS011;6867;50.998;4.250;2023-04-25T13:35:28;3.25;;;1.40;;
13592;SDS011;6867;50.998;4.250;2023-04-25T13:37:54;8.73;;;1.13;;
13592;SDS011;6867;50.998;4.250;2023-04-25T13:40:21;4.22;;;1.00;;
13592;SDS011;6867;50.998;4.250;2023-04-25T13:42:48;4.70;;;1.38;;
13592;SDS011;6867;50.998;4.250;2023-04-25T13:45:17;4.97;;;1.10;;
13592;SDS011;6867;50.998;4.250;2023-04-25T13:47:44;2.97;;;1.20;;
13592;SDS011;6867;50.998;4.250;2023-04-25T13:50:11;4.17;;;1.03;;
13592;SDS011;6867;50.998;4.250;2023-04-25T13:52:38;1.67;;;0.90;;
13592;SDS011;6867;50.998;4.250;2023-04-25T13:55:05;1.10;;;0.80;;
13592;SDS011;6867;50.998;4.250;2023-04-25T13:57:33;2.03;;;1.10;;
13592;SDS011;6867;50.998;4.250;2023-04-25T14:00:00;3.57;;;1.20;;
13592;SDS011;6867;50.998;4.250;2023-04-25T14:02:32;7.80;;;1.20;;
13592;SDS011;6867;50.998;4.250;2023-04-25T14:04:59;2.37;;;1.00;;
13592;SDS011;6867;50.998;4.250;2023-04-25T14:07:26;3.67;;;1.30;;
13592;SDS011;6867;50.998;4.250;2023-04-25T14:09:53;5.03;;;1.20;;
13592;SDS011;6867;50.998;4.250;2023-04-25T14:12:19;3.33;;;1.20;;
13592;SDS011;6867;50.998;4.250;2023-04-25T14:14:46;3.30;;;1.40;;
13592;SDS011;6867;50.998;4.250;2023-04-25T14:17:13;5.40;;;2.10;;
13592;SDS011;6867;50.998;4.250;2023-04-25T14:19:41;2.57;;;1.20;;
13592;SDS011;6867;50.998;4.250;2023-04-25T14:22:10;1.13;;;0.80;;
13592;SDS011;6867;50.998;4.250;2023-04-25T14:24:37;3.47;;;1.27;;
13592;SDS011;6867;50.998;4.250;2023-04-25T14:27:04;7.30;;;1.40;;
13592;SDS011;6867;50.998;4.250;2023-04-25T14:29:31;2.73;;;1.03;;
13592;SDS011;6867;50.998;4.250;2023-04-25T14:31:57;5.07;;;1.20;;
13592;SDS011;6867;50.998;4.250;2023-04-25T14:34:24;4.18;;;1.20;;
13592;SDS011;6867;50.998;4.250;2023-04-25T14:36:52;3.27;;;1.10;;
13592;SDS011;6867;50.998;4.250;2023-04-25T14:39:19;4.30;;;1.20;;
13592;SDS011;6867;50.998;4.250;2023-04-25T14:41:46;1.50;;;0.93;;
13592;SDS011;6867;50.998;4.250;2023-04-25T14:44:12;5.63;;;1.73;;
13592;SDS011;6867;50.998;4.250;2023-04-25T14:46:40;3.50;;;1.13;;
13592;SDS011;6867;50.998;4.250;2023-04-25T14:49:07;4.07;;;1.03;;
13592;SDS011;6867;50.998;4.250;2023-04-25T14:51:34;2.60;;;0.93;;
13592;SDS011;6867;50.998;4.250;2023-04-25T14:54:02;4.30;;;1.23;;
13592;SDS011;6867;50.998;4.250;2023-04-25T14:56:29;1.43;;;0.80;;
13592;SDS011;6867;50.998;4.250;2023-04-25T14:58:55;3.37;;;1.20;;
13592;SDS011;6867;50.998;4.250;2023-04-25T15:01:22;2.00;;;1.10;;